createdAt,value
2023-06-17T00:11:51.274Z,96014.88
2023-06-17T00:17:12.696Z,96014.09
2023-06-17T00:22:31.890Z,96014.06
2023-06-17T00:27:45.533Z,96002.94
2023-06-17T00:33:02.198Z,96004.06
2023-06-17T00:38:12.633Z,96010.03
2023-06-17T00:43:27.263Z,96001.66
2023-06-17T00:48:41.788Z,95999.78
2023-06-17T00:53:52.208Z,95989.53
2023-06-17T00:59:02.524Z,95997.91
2023-06-17T01:04:26.865Z,95995.97
2023-06-17T01:09:46.826Z,95995.88
2023-06-17T01:15:03.371Z,95996.94
2023-06-17T01:20:21.990Z,96000.69
2023-06-17T01:25:51.456Z,95990.00
2023-06-17T01:36:43.687Z,95990.59
2023-06-17T01:42:03.544Z,95987.84
2023-06-17T01:47:14.435Z,95987.38
2023-06-17T01:52:23.158Z,95993.09
2023-06-17T01:57:37.604Z,95977.97
2023-06-17T02:02:48.556Z,95988.16
2023-06-17T02:08:01.243Z,95980.53
2023-06-17T02:13:16.595Z,95986.50
2023-06-17T02:18:26.021Z,95973.13
2023-06-17T02:23:44.402Z,95970.84
2023-06-17T02:28:58.884Z,95970.47
2023-06-17T02:34:11.546Z,95965.53
2023-06-17T02:39:20.235Z,95961.34
2023-06-17T02:44:31.763Z,95964.81
2023-06-17T02:49:40.796Z,95961.41
2023-06-17T02:54:52.765Z,95957.97
2023-06-17T03:00:06.523Z,95962.84
2023-06-17T03:05:16.703Z,95963.47
2023-06-17T03:10:25.020Z,95965.63
2023-06-17T03:15:37.632Z,95965.47
2023-06-17T03:20:45.971Z,95960.81
2023-06-17T03:25:55.445Z,95966.81
2023-06-17T03:31:07.042Z,95965.69
2023-06-17T03:36:15.372Z,95969.41
2023-06-17T03:41:23.394Z,95973.59
2023-06-17T03:46:34.199Z,95971.72
2023-06-17T03:51:42.739Z,95968.34
2023-06-17T03:56:50.705Z,95965.25
2023-06-17T04:02:02.215Z,95973.91
2023-06-17T04:07:10.414Z,95973.13
2023-06-17T04:12:21.038Z,95968.22
2023-06-17T04:17:32.705Z,95973.59
2023-06-17T04:22:42.738Z,95976.28
2023-06-17T04:27:58.030Z,95980.28
2023-06-17T04:33:14.041Z,95976.75
2023-06-17T04:38:27.771Z,95978.03
2023-06-17T04:43:51.464Z,95977.47
2023-06-17T04:49:05.767Z,95980.63
2023-06-17T04:54:14.547Z,95970.06
2023-06-17T04:59:28.058Z,95965.63
2023-06-17T05:04:51.162Z,95976.78
2023-06-17T05:10:00.174Z,95977.97
2023-06-17T05:15:13.911Z,95972.34
2023-06-17T05:20:45.084Z,95976.63
2023-06-17T05:26:00.281Z,95986.22
2023-06-17T05:31:13.241Z,95970.69
2023-06-17T05:36:38.714Z,95982.19
2023-06-17T05:41:48.007Z,95984.50
2023-06-17T05:46:57.289Z,95989.88
2023-06-17T05:52:10.074Z,96002.06
2023-06-17T05:57:23.196Z,96000.50
2023-06-17T06:02:33.231Z,95991.34
2023-06-17T06:07:47.982Z,95993.94
2023-06-17T06:13:00.175Z,95985.84
2023-06-17T06:18:18.698Z,95993.38
2023-06-17T06:29:19.100Z,95995.00
2023-06-17T06:52:15.241Z,96010.88
2023-06-17T07:09:11.759Z,96022.66
2023-06-17T07:14:33.625Z,96017.75
2023-06-17T07:31:38.113Z,96020.56
2023-06-17T07:54:09.591Z,96010.53
2023-06-17T08:22:49.794Z,95997.78
2023-06-17T08:28:15.255Z,95997.09
2023-06-17T08:33:26.418Z,95990.72
2023-06-17T08:38:44.264Z,95997.75
2023-06-17T08:44:03.196Z,95991.78
2023-06-17T08:49:15.124Z,95984.28
2023-06-17T08:54:27.039Z,95987.69
2023-06-17T08:59:35.921Z,95974.78
2023-06-17T09:04:44.453Z,95971.00
2023-06-17T09:09:59.557Z,95979.91
2023-06-17T09:15:09.437Z,95967.22
2023-06-17T09:20:20.142Z,95975.75
2023-06-17T09:25:31.955Z,95973.72
2023-06-17T09:30:45.237Z,95975.75
2023-06-17T09:36:02.917Z,95971.44
2023-06-17T09:41:17.833Z,95970.03
2023-06-17T09:46:33.391Z,95972.50
2023-06-17T09:51:42.656Z,95980.16
2023-06-17T09:56:54.542Z,95968.19
2023-06-17T10:02:02.670Z,95962.16
2023-06-17T10:07:12.059Z,95958.38
2023-06-17T10:12:25.717Z,95955.78
2023-06-17T10:17:36.708Z,95950.03
2023-06-17T10:22:47.599Z,95943.00
2023-06-17T10:27:58.090Z,95933.88
2023-06-17T10:33:07.161Z,95944.28
2023-06-17T10:38:31.993Z,95941.25
2023-06-17T10:43:42.380Z,95936.00
2023-06-17T10:48:50.831Z,95938.63
2023-06-17T10:54:01.186Z,95932.09
2023-06-17T10:59:11.547Z,95934.75
2023-06-17T11:04:19.422Z,95927.63
2023-06-17T11:09:34.986Z,95920.88
2023-06-17T11:14:45.516Z,95926.66
2023-06-17T11:19:56.662Z,95918.28
2023-06-17T11:25:05.810Z,95924.69
2023-06-17T11:30:19.398Z,95926.66
2023-06-17T11:35:28.882Z,95921.88
2023-06-17T11:40:36.988Z,95909.91
2023-06-17T11:45:47.612Z,95912.44
2023-06-17T11:50:57.512Z,95917.28
2023-06-17T11:56:09.749Z,95907.53
2023-06-17T12:01:20.407Z,95899.59
2023-06-17T12:06:29.346Z,95893.50
2023-06-17T12:11:39.519Z,95894.28
2023-06-17T12:16:49.917Z,95899.44
2023-06-17T12:22:01.970Z,95888.97
2023-06-17T12:27:12.147Z,95896.81
2023-06-17T12:32:22.578Z,95891.22
2023-06-17T12:37:33.020Z,95878.44
2023-06-17T12:42:41.047Z,95881.28
2023-06-17T12:47:52.699Z,95878.75
2023-06-17T12:53:00.972Z,95868.25
2023-06-17T12:58:09.334Z,95869.19
2023-06-17T13:03:20.409Z,95867.09
2023-06-17T13:08:29.089Z,95857.16
2023-06-17T13:13:39.284Z,95841.56
2023-06-17T13:18:49.727Z,95844.56
2023-06-17T13:23:58.097Z,95848.50
2023-06-17T13:29:06.176Z,95842.19
2023-06-17T13:34:17.263Z,95836.16
2023-06-17T13:39:27.433Z,95837.81
2023-06-17T13:44:35.577Z,95832.56
2023-06-17T13:49:46.322Z,95828.19
2023-06-17T13:54:54.024Z,95831.63
2023-06-17T14:00:01.895Z,95830.75
2023-06-17T14:05:15.214Z,95829.53
2023-06-17T14:10:25.789Z,95824.59
2023-06-17T14:15:33.743Z,95821.38
2023-06-17T14:20:44.198Z,95820.66
2023-06-17T14:25:55.014Z,95817.19
2023-06-17T14:31:03.340Z,95813.28
